Data Viewer
| City | State | Eastern Time | Source | Temp | DewPt | RH | BP | 5 Min Precip | Wind Speed | Wind Dir | 5 Min Wind Max | 5 Min Wind Max Dir |
|---|---|---|---|---|---|---|---|---|---|---|---|---|
| New York JFK | NY | 2026-05-09 05:20 | ASOS | 54 | 46 | 77 | 29.90 | 3 | SE | |||
| New York JFK | NY | 2026-05-10 02:35 | ASOS | 52 | 52 | 100 | 29.86 | 0 | N | |||
| New York JFK | NY | 2026-05-10 03:10 | ASOS | 52 | 52 | 100 | 29.87 | 7 | N | |||
| New York JFK | NY | 2026-05-10 03:05 | ASOS | 52 | 52 | 100 | 29.87 | 6 | N | |||
| New York JFK | NY | 2026-05-10 03:00 | ASOS | 52 | 52 | 100 | 29.87 | 0 | N | |||
| New York JFK | NY | 2026-05-10 02:55 | ASOS | 52 | 52 | 100 | 29.86 | 3 | NE | |||
| New York JFK | NY | 2026-05-10 02:51 | ASOS | 52 | 52 | 100 | 29.86 | 0 | N | |||
| New York JFK | NY | 2026-05-10 02:50 | ASOS | 52 | 52 | 100 | 29.86 | 0 | N | |||
| New York JFK | NY | 2026-05-10 02:45 | ASOS | 52 | 52 | 100 | 29.86 | 0 | N | |||
| New York JFK | NY | 2026-05-10 02:40 | ASOS | 52 | 52 | 100 | 29.86 | 3 | E | |||
| New York JFK | NY | 2026-05-10 02:30 | ASOS | 52 | 52 | 100 | 29.86 | 0 | N | |||
| New York JFK | NY | 2026-05-10 03:20 | ASOS | 54 | 52 | 94 | 29.88 | 8 | N | |||
| New York JFK | NY | 2026-05-10 02:25 | ASOS | 52 | 52 | 100 | 29.86 | 3 | E | |||
| New York JFK | NY | 2026-05-10 02:20 | ASOS | 52 | 52 | 100 | 29.87 | 3 | E | |||
| New York JFK | NY | 2026-05-10 02:15 | ASOS | 52 | 52 | 100 | 29.87 | 0 | N | |||
| New York JFK | NY | 2026-05-09 22:05 | ASOS | 54 | 52 | 94 | 29.87 | 5 | E | |||
| New York JFK | NY | 2026-05-09 18:51 | ASOS | 56 | 53 | 90 | 29.85 | 6 | E | |||
| New York JFK | NY | 2026-05-09 14:50 | ASOS | 55 | 54 | 94 | 29.88 | 12 | SSW | |||
| New York JFK | NY | 2026-05-09 11:15 | ASOS | 61 | 52 | 72 | 29.90 | 9 | S | |||
| New York JFK | NY | 2026-05-09 11:05 | ASOS | 59 | 48 | 67 | 29.90 | 7 | SE | |||
| New York JFK | NY | 2026-05-09 11:00 | ASOS | 59 | 50 | 72 | 29.90 | 7 | SE | |||
| New York JFK | NY | 2026-05-10 03:15 | ASOS | 54 | 52 | 94 | 29.87 | 8 | N | |||
| New York JFK | NY | 2026-05-10 03:21 | ASOS | 53 | 52 | 96 | 29.88 | 8 | N | |||
| New York JFK | NY | 2026-05-09 10:50 | ASOS | 59 | 50 | 72 | 29.90 | 7 | SE | |||
| New York JFK | NY | 2026-05-10 04:15 | ASOS | 52 | 52 | 100 | 29.88 | 6 | N | |||
| New York JFK | NY | 2026-05-10 05:05 | ASOS | 52 | 52 | 100 | 29.90 | 8 | N | |||
| New York JFK | NY | 2026-05-10 05:00 | ASOS | 52 | 52 | 100 | 29.90 | 13 | NNW | |||
| New York JFK | NY | 2026-05-10 04:51 | ASOS | 52 | 52 | 100 | 29.89 | 0 | N | |||
| New York JFK | NY | 2026-05-10 04:45 | ASOS | 52 | 52 | 100 | 29.89 | 0 | N | |||
| New York JFK | NY | 2026-05-10 04:40 | ASOS | 52 | 52 | 100 | 29.88 | 0 | N | |||
| New York JFK | NY | 2026-05-10 04:35 | ASOS | 52 | 52 | 100 | 29.88 | 3 | NNE | |||
| New York JFK | NY | 2026-05-10 04:30 | ASOS | 52 | 52 | 100 | 29.88 | 6 | N | |||
| New York JFK | NY | 2026-05-10 04:25 | ASOS | 52 | 52 | 100 | 29.88 | 6 | N | |||
| New York JFK | NY | 2026-05-10 04:20 | ASOS | 52 | 52 | 100 | 29.88 | 5 | N | |||
| New York JFK | NY | 2026-05-10 04:10 | ASOS | 52 | 52 | 100 | 29.88 | 5 | N | |||
| New York JFK | NY | 2026-05-10 03:25 | ASOS | 54 | 52 | 94 | 29.88 | 9 | N | |||
| New York JFK | NY | 2026-05-10 04:05 | ASOS | 52 | 52 | 100 | 29.88 | 5 | NNE | |||
| New York JFK | NY | 2026-05-10 04:00 | ASOS | 52 | 52 | 100 | 29.88 | 5 | N | |||
| New York JFK | NY | 2026-05-10 03:55 | ASOS | 52 | 52 | 100 | 29.87 | 6 | NE | |||
| New York JFK | NY | 2026-05-10 03:51 | ASOS | 52 | 52 | 100 | 29.87 | 6 | NNE | |||
| New York JFK | NY | 2026-05-10 03:50 | ASOS | 52 | 52 | 100 | 29.87 | 5 | NNE | |||
| New York JFK | NY | 2026-05-10 03:45 | ASOS | 54 | 52 | 94 | 29.87 | 6 | NNE | |||
| New York JFK | NY | 2026-05-10 03:40 | ASOS | 52 | 52 | 100 | 29.87 | 6 | N | |||
| New York JFK | NY | 2026-05-10 03:35 | ASOS | 52 | 52 | 100 | 29.88 | 7 | N | |||
| New York JFK | NY | 2026-05-10 03:30 | ASOS | 52 | 52 | 100 | 29.87 | 8 | N | |||
| New York JFK | NY | 2026-05-09 10:51 | ASOS | 59 | 50 | 72 | 29.90 | 7 | SE | |||
| New York JFK | NY | 2026-05-09 10:40 | ASOS | 59 | 48 | 67 | 29.90 | 8 | SE | |||
| New York JFK | NY | 2026-05-09 05:25 | ASOS | 54 | 46 | 77 | 29.90 | 3 | SE | |||
| New York JFK | NY | 2026-05-09 06:20 | ASOS | 54 | 46 | 77 | 29.90 | 7 | S | |||
| New York JFK | NY | 2026-05-09 07:10 | ASOS | 55 | 46 | 72 | 29.92 | 14 | S | |||
| New York JFK | NY | 2026-05-09 07:05 | ASOS | 55 | 46 | 72 | 29.92 | 13 | S | |||
| New York JFK | NY | 2026-05-09 07:00 | ASOS | 55 | 46 | 72 | 29.92 | 12 | S | |||
| New York JFK | NY | 2026-05-09 06:50 | ASOS | 55 | 46 | 72 | 29.91 | 13 | S | |||
| New York JFK | NY | 2026-05-09 06:45 | ASOS | 55 | 46 | 72 | 29.91 | 9 | S | |||
| New York JFK | NY | 2026-05-09 06:40 | ASOS | 54 | 46 | 77 | 29.91 | 9 | SSW | |||
| New York JFK | NY | 2026-05-09 06:35 | ASOS | 54 | 46 | 77 | 29.91 | 9 | S | |||
| New York JFK | NY | 2026-05-09 06:30 | ASOS | 54 | 46 | 77 | 29.91 | 7 | SSW | |||
| New York JFK | NY | 2026-05-09 06:25 | ASOS | 54 | 46 | 77 | 29.91 | 8 | SSW | |||
| New York JFK | NY | 2026-05-09 06:15 | ASOS | 54 | 46 | 77 | 29.90 | 6 | SSW | |||
| New York JFK | NY | 2026-05-09 07:20 | ASOS | 55 | 46 | 72 | 29.92 | 12 | S | |||
| New York JFK | NY | 2026-05-09 06:10 | ASOS | 54 | 46 | 77 | 29.90 | 6 | S | |||
| New York JFK | NY | 2026-05-09 06:05 | ASOS | 54 | 46 | 77 | 29.90 | 8 | S | |||
| New York JFK | NY | 2026-05-09 06:00 | ASOS | 54 | 46 | 77 | 29.91 | 9 | S | |||
| New York JFK | NY | 2026-05-09 05:51 | ASOS | 54 | 46 | 75 | 29.90 | 9 | SSW | |||
| New York JFK | NY | 2026-05-09 05:50 | ASOS | 54 | 46 | 77 | 29.90 | 10 | S | |||
| New York JFK | NY | 2026-05-09 05:45 | ASOS | 54 | 46 | 77 | 29.90 | 10 | S | |||
| New York JFK | NY | 2026-05-09 05:40 | ASOS | 52 | 46 | 82 | 29.90 | 7 | S | |||
| New York JFK | NY | 2026-05-09 05:35 | ASOS | 54 | 46 | 77 | 29.90 | 5 | SSE | |||
| New York JFK | NY | 2026-05-09 05:30 | ASOS | 54 | 46 | 77 | 29.90 | 3 | SE | |||
| New York JFK | NY | 2026-05-09 07:15 | ASOS | 55 | 46 | 72 | 29.92 | 10 | S | |||
| New York JFK | NY | 2026-05-09 07:25 | ASOS | 55 | 46 | 72 | 29.92 | 8 | SSE | |||
| New York JFK | NY | 2026-05-09 10:25 | ASOS | 61 | 48 | 63 | 29.90 | 7 | SE | |||
| New York JFK | NY | 2026-05-09 08:55 | ASOS | 55 | 48 | 77 | 29.92 | 0 | N | |||
| New York JFK | NY | 2026-05-09 10:15 | ASOS | 61 | 48 | 63 | 29.90 | 5 | SSE | |||
| New York JFK | NY | 2026-05-09 10:05 | ASOS | 59 | 46 | 63 | 29.90 | 6 | SSE | |||
| New York JFK | NY | 2026-05-09 09:51 | ASOS | 58 | 48 | 70 | 29.90 | 3 | SSE | |||
| New York JFK | NY | 2026-05-09 09:50 | ASOS | 57 | 48 | 72 | 29.90 | 3 | SSE | |||
| New York JFK | NY | 2026-05-09 09:40 | ASOS | 57 | 48 | 72 | 29.91 | 3 | SSE | |||
| New York JFK | NY | 2026-05-09 09:25 | ASOS | 57 | 48 | 72 | 29.90 | 0 | N | |||
| New York JFK | NY | 2026-05-09 09:15 | ASOS | 55 | 48 | 77 | 29.91 | 0 | N | |||
| New York JFK | NY | 2026-05-09 09:10 | ASOS | 55 | 48 | 77 | 29.91 | 3 | SE | |||
| New York JFK | NY | 2026-05-09 09:05 | ASOS | 55 | 48 | 77 | 29.91 | 3 | SSE | |||
| New York JFK | NY | 2026-05-09 08:50 | ASOS | 55 | 48 | 77 | 29.92 | 5 | SE | |||
| New York JFK | NY | 2026-05-09 07:30 | ASOS | 55 | 48 | 77 | 29.92 | 7 | SSE | |||
| New York JFK | NY | 2026-05-09 08:40 | ASOS | 55 | 48 | 77 | 29.92 | 5 | SE | |||
| New York JFK | NY | 2026-05-09 08:25 | ASOS | 55 | 48 | 77 | 29.92 | 7 | SE | |||
| New York JFK | NY | 2026-05-09 08:20 | ASOS | 55 | 48 | 77 | 29.92 | 7 | SSE | |||
| New York JFK | NY | 2026-05-09 08:15 | ASOS | 55 | 48 | 77 | 29.92 | 8 | SSE | |||
| New York JFK | NY | 2026-05-09 08:05 | ASOS | 55 | 48 | 77 | 29.92 | 6 | SSE | |||
| New York JFK | NY | 2026-05-09 07:51 | ASOS | 55 | 48 | 77 | 29.92 | 6 | SSE | |||
| New York JFK | NY | 2026-05-09 07:50 | ASOS | 55 | 48 | 77 | 29.92 | 5 | SSE | |||
| New York JFK | NY | 2026-05-09 07:40 | ASOS | 55 | 48 | 77 | 29.92 | 7 | SSE | |||
| New York JFK | NY | 2026-05-09 07:35 | ASOS | 55 | 48 | 77 | 29.92 | 7 | S | |||
| New York JFK | NY | 2026-05-10 05:10 | ASOS | 52 | 52 | 100 | 29.90 | 13 | N |
data collection created in 0.0139319896698 (queried in 0.003020) rendered in: 0.00012588500976562

